Aviation Digital Data Service (ADDS)

Output produced by METARs form (1357 UTC 20 July 2019)
found at http://www.aviationweather.gov/metar/data/
 
METAR text: RJOH 201300Z VRB02KT 9999 -RA FEW060 BKN080 OVC150 26/22 Q1009
Conditions at: RJOH (MIHO (CIV/JASDF), JP) observed 1300 UTC 20 July 2019
Temperature: 26.0°C (79°F)
Dewpoint: 22.0°C (72°F) [RH = 79%]
Pressure (altimeter): 29.79 inches Hg (1009.0 mb)
Winds: variable direction winds at 2 MPH (2 knots; 1.0 m/s)
Visibility: 6 or more miles (10+ km)
Ceiling: 8000 feet AGL
Clouds: few clouds at 6000 feet AGL
broken clouds at 8000 feet AGL
overcast cloud deck at 15000 feet AGL
Weather: -RA  (light rain)

METAR text: RJOH 201200Z 11004KT 090V160 9999 -RA FEW015 BKN080 OVC150 26/22 Q1009
Conditions at: RJOH (MIHO (CIV/JASDF), JP) observed 1200 UTC 20 July 2019
Temperature: 26.0°C (79°F)
Dewpoint: 22.0°C (72°F) [RH = 79%]
Pressure (altimeter): 29.79 inches Hg (1009.0 mb)
Winds: from the ESE (110 degrees) at 5 MPH (4 knots; 2.1 m/s)
Visibility: 6 or more miles (10+ km)
Ceiling: 8000 feet AGL
Clouds: few clouds at 1500 feet AGL
broken clouds at 8000 feet AGL
overcast cloud deck at 15000 feet AGL
Weather: -RA  (light rain)

METAR text: RJOH 201100Z 13007KT 9999 -RA FEW015 BKN080 OVC150 28/21 Q1008
Conditions at: RJOH (MIHO (CIV/JASDF), JP) observed 1100 UTC 20 July 2019
Temperature: 28.0°C (82°F)
Dewpoint: 21.0°C (70°F) [RH = 66%]
Pressure (altimeter): 29.76 inches Hg (1008.0 mb)
Winds: from the SE (130 degrees) at 8 MPH (7 knots; 3.6 m/s)
Visibility: 6 or more miles (10+ km)
Ceiling: 8000 feet AGL
Clouds: few clouds at 1500 feet AGL
broken clouds at 8000 feet AGL
overcast cloud deck at 15000 feet AGL
Weather: -RA  (light rain)

METAR text: RJOH 201000Z 11003KT 050V160 9999 FEW015 BKN080 OVC150 28/21 Q1007
Conditions at: RJOH (MIHO (CIV/JASDF), JP) observed 1000 UTC 20 July 2019
Temperature: 28.0°C (82°F)
Dewpoint: 21.0°C (70°F) [RH = 66%]
Pressure (altimeter): 29.73 inches Hg (1007.0 mb)
Winds: from the ESE (110 degrees) at 3 MPH (3 knots; 1.5 m/s)
Visibility: 6 or more miles (10+ km)
Ceiling: 8000 feet AGL
Clouds: few clouds at 1500 feet AGL
broken clouds at 8000 feet AGL
overcast cloud deck at 15000 feet AGL
Weather: no significant weather observed at this time

METAR text: RJOH 200900Z 13009KT 090V160 9999 FEW015 BKN080 OVC150 28/21 Q1007
Conditions at: RJOH (MIHO (CIV/JASDF), JP) observed 0900 UTC 20 July 2019
Temperature: 28.0°C (82°F)
Dewpoint: 21.0°C (70°F) [RH = 66%]
Pressure (altimeter): 29.73 inches Hg (1007.0 mb)
Winds: from the SE (130 degrees) at 10 MPH (9 knots; 4.6 m/s)
Visibility: 6 or more miles (10+ km)
Ceiling: 8000 feet AGL
Clouds: few clouds at 1500 feet AGL
broken clouds at 8000 feet AGL
overcast cloud deck at 15000 feet AGL
Weather: no significant weather observed at this time

METAR text: RJOH 200800Z 08009KT 9999 -RA FEW015 BKN080 OVC120 27/22 Q1007
Conditions at: RJOH (MIHO (CIV/JASDF), JP) observed 0800 UTC 20 July 2019
Temperature: 27.0°C (81°F)
Dewpoint: 22.0°C (72°F) [RH = 74%]
Pressure (altimeter): 29.73 inches Hg (1007.0 mb)
Winds: from the E (80 degrees) at 10 MPH (9 knots; 4.6 m/s)
Visibility: 6 or more miles (10+ km)
Ceiling: 8000 feet AGL
Clouds: few clouds at 1500 feet AGL
broken clouds at 8000 feet AGL
overcast cloud deck at 12000 feet AGL
Weather: -RA  (light rain)

METAR text: RJOH 200700Z 08007KT 9999 -RA FEW015 BKN080 OVC120 27/22 Q1008
Conditions at: RJOH (MIHO (CIV/JASDF), JP) observed 0700 UTC 20 July 2019
Temperature: 27.0°C (81°F)
Dewpoint: 22.0°C (72°F) [RH = 74%]
Pressure (altimeter): 29.76 inches Hg (1008.0 mb)
Winds: from the E (80 degrees) at 8 MPH (7 knots; 3.6 m/s)
Visibility: 6 or more miles (10+ km)
Ceiling: 8000 feet AGL
Clouds: few clouds at 1500 feet AGL
broken clouds at 8000 feet AGL
overcast cloud deck at 12000 feet AGL
Weather: -RA  (light rain)

METAR text: RJOH 200600Z 06007KT 9999 -RA FEW006 SCT060 BKN080 26/23 Q1009
Conditions at: RJOH (MIHO (CIV/JASDF), JP) observed 0600 UTC 20 July 2019
Temperature: 26.0°C (79°F)
Dewpoint: 23.0°C (73°F) [RH = 84%]
Pressure (altimeter): 29.79 inches Hg (1009.0 mb)
Winds: from the ENE (60 degrees) at 8 MPH (7 knots; 3.6 m/s)
Visibility: 6 or more miles (10+ km)
Ceiling: 8000 feet AGL
Clouds: few clouds at 600 feet AGL
scattered clouds at 6000 feet AGL
broken clouds at 8000 feet AGL
Weather: -RA  (light rain)

METAR text: RJOH 200500Z 07005KT 9999 -RA FEW006 SCT060 BKN080 26/24 Q1010
Conditions at: RJOH (MIHO (CIV/JASDF), JP) observed 0500 UTC 20 July 2019
Temperature: 26.0°C (79°F)
Dewpoint: 24.0°C (75°F) [RH = 89%]
Pressure (altimeter): 29.82 inches Hg (1010.0 mb)
Winds: from the ENE (70 degrees) at 6 MPH (5 knots; 2.6 m/s)
Visibility: 6 or more miles (10+ km)
Ceiling: 8000 feet AGL
Clouds: few clouds at 600 feet AGL
scattered clouds at 6000 feet AGL
broken clouds at 8000 feet AGL
Weather: -RA  (light rain)

METAR text: RJOH 200400Z 08009KT 9999 -RA FEW006 SCT060 BKN080 26/24 Q1010
Conditions at: RJOH (MIHO (CIV/JASDF), JP) observed 0400 UTC 20 July 2019
Temperature: 26.0°C (79°F)
Dewpoint: 24.0°C (75°F) [RH = 89%]
Pressure (altimeter): 29.82 inches Hg (1010.0 mb)
Winds: from the E (80 degrees) at 10 MPH (9 knots; 4.6 m/s)
Visibility: 6 or more miles (10+ km)
Ceiling: 8000 feet AGL
Clouds: few clouds at 600 feet AGL
scattered clouds at 6000 feet AGL
broken clouds at 8000 feet AGL
Weather: -RA  (light rain)

METAR text: RJOH 200300Z 07010KT 9999 -RA FEW006 BKN080 OVC120 25/23 Q1011
Conditions at: RJOH (MIHO (CIV/JASDF), JP) observed 0300 UTC 20 July 2019
Temperature: 25.0°C (77°F)
Dewpoint: 23.0°C (73°F) [RH = 89%]
Pressure (altimeter): 29.85 inches Hg (1011.0 mb)
Winds: from the ENE (70 degrees) at 12 MPH (10 knots; 5.1 m/s)
Visibility: 6 or more miles (10+ km)
Ceiling: 8000 feet AGL
Clouds: few clouds at 600 feet AGL
broken clouds at 8000 feet AGL
overcast cloud deck at 12000 feet AGL
Weather: -RA  (light rain)

METAR text: RJOH 200200Z 09009KT 9999 -RA FEW006 BKN080 OVC120 25/23 Q1012
Conditions at: RJOH (MIHO (CIV/JASDF), JP) observed 0200 UTC 20 July 2019
Temperature: 25.0°C (77°F)
Dewpoint: 23.0°C (73°F) [RH = 89%]
Pressure (altimeter): 29.88 inches Hg (1012.0 mb)
Winds: from the E (90 degrees) at 10 MPH (9 knots; 4.6 m/s)
Visibility: 6 or more miles (10+ km)
Ceiling: 8000 feet AGL
Clouds: few clouds at 600 feet AGL
broken clouds at 8000 feet AGL
overcast cloud deck at 12000 feet AGL
Weather: -RA  (light rain)

METAR text: RJOH 200100Z 05009KT 9999 -RA FEW006 BKN080 OVC120 24/23 Q1011
Conditions at: RJOH (MIHO (CIV/JASDF), JP) observed 0100 UTC 20 July 2019
Temperature: 24.0°C (75°F)
Dewpoint: 23.0°C (73°F) [RH = 94%]
Pressure (altimeter): 29.85 inches Hg (1011.0 mb)
Winds: from the NE (50 degrees) at 10 MPH (9 knots; 4.6 m/s)
Visibility: 6 or more miles (10+ km)
Ceiling: 8000 feet AGL
Clouds: few clouds at 600 feet AGL
broken clouds at 8000 feet AGL
overcast cloud deck at 12000 feet AGL
Weather: -RA  (light rain)

METAR text: RJOH 200000Z 06007KT 9999 -RA FEW006 SCT060 BKN080 24/23 Q1012
Conditions at: RJOH (MIHO (CIV/JASDF), JP) observed 0000 UTC 20 July 2019
Temperature: 24.0°C (75°F)
Dewpoint: 23.0°C (73°F) [RH = 94%]
Pressure (altimeter): 29.88 inches Hg (1012.0 mb)
Winds: from the ENE (60 degrees) at 8 MPH (7 knots; 3.6 m/s)
Visibility: 6 or more miles (10+ km)
Ceiling: 8000 feet AGL
Clouds: few clouds at 600 feet AGL
scattered clouds at 6000 feet AGL
broken clouds at 8000 feet AGL
Weather: -RA  (light rain)

METAR text: RJOH 192300Z 07005KT 9999 -RA FEW006 SCT060 OVC080 24/22 Q1012
Conditions at: RJOH (MIHO (CIV/JASDF), JP) observed 2300 UTC 19 July 2019
Temperature: 24.0°C (75°F)
Dewpoint: 22.0°C (72°F) [RH = 89%]
Pressure (altimeter): 29.88 inches Hg (1012.0 mb)
Winds: from the ENE (70 degrees) at 6 MPH (5 knots; 2.6 m/s)
Visibility: 6 or more miles (10+ km)
Ceiling: 8000 feet AGL
Clouds: few clouds at 600 feet AGL
scattered clouds at 6000 feet AGL
overcast cloud deck at 8000 feet AGL
Weather: -RA  (light rain)

METAR text: RJOH 192200Z VRB01KT 9999 -RA FEW004 SCT060 OVC080 24/23 Q1012
Conditions at: RJOH (MIHO (CIV/JASDF), JP) observed 2200 UTC 19 July 2019
Temperature: 24.0°C (75°F)
Dewpoint: 23.0°C (73°F) [RH = 94%]
Pressure (altimeter): 29.88 inches Hg (1012.0 mb)
Winds: variable direction winds at 1 MPH (1 knots; 0.5 m/s)
Visibility: 6 or more miles (10+ km)
Ceiling: 8000 feet AGL
Clouds: few clouds at 400 feet AGL
scattered clouds at 6000 feet AGL
overcast cloud deck at 8000 feet AGL
Weather: -RA  (light rain)

METAR text: RJOH 192100Z 17004KT 140V210 9999 -RA FEW030 SCT060 OVC080 24/22 Q1012
Conditions at: RJOH (MIHO (CIV/JASDF), JP) observed 2100 UTC 19 July 2019
Temperature: 24.0°C (75°F)
Dewpoint: 22.0°C (72°F) [RH = 89%]
Pressure (altimeter): 29.88 inches Hg (1012.0 mb)
Winds: from the S (170 degrees) at 5 MPH (4 knots; 2.1 m/s)
Visibility: 6 or more miles (10+ km)
Ceiling: 8000 feet AGL
Clouds: few clouds at 3000 feet AGL
scattered clouds at 6000 feet AGL
overcast cloud deck at 8000 feet AGL
Weather: -RA  (light rain)

METAR text: RJOH 192000Z VRB02KT 9999 -RA FEW030 SCT080 OVC100 25/22 Q1011
Conditions at: RJOH (MIHO (CIV/JASDF), JP) observed 2000 UTC 19 July 2019
Temperature: 25.0°C (77°F)
Dewpoint: 22.0°C (72°F) [RH = 83%]
Pressure (altimeter): 29.85 inches Hg (1011.0 mb)
Winds: variable direction winds at 2 MPH (2 knots; 1.0 m/s)
Visibility: 6 or more miles (10+ km)
Ceiling: 10000 feet AGL
Clouds: few clouds at 3000 feet AGL
scattered clouds at 8000 feet AGL
overcast cloud deck at 10000 feet AGL
Weather: -RA  (light rain)

METAR text: RJOH 191900Z VRB02KT 9999 -RA FEW050 SCT080 OVC100 25/22 Q1011
Conditions at: RJOH (MIHO (CIV/JASDF), JP) observed 1900 UTC 19 July 2019
Temperature: 25.0°C (77°F)
Dewpoint: 22.0°C (72°F) [RH = 83%]
Pressure (altimeter): 29.85 inches Hg (1011.0 mb)
Winds: variable direction winds at 2 MPH (2 knots; 1.0 m/s)
Visibility: 6 or more miles (10+ km)
Ceiling: 10000 feet AGL
Clouds: few clouds at 5000 feet AGL
scattered clouds at 8000 feet AGL
overcast cloud deck at 10000 feet AGL
Weather: -RA  (light rain)

METAR text: RJOH 191800Z VRB02KT 9999 -RA FEW050 BKN100 OVC140 26/22 Q1010
Conditions at: RJOH (MIHO (CIV/JASDF), JP) observed 1800 UTC 19 July 2019
Temperature: 26.0°C (79°F)
Dewpoint: 22.0°C (72°F) [RH = 79%]
Pressure (altimeter): 29.82 inches Hg (1010.0 mb)
Winds: variable direction winds at 2 MPH (2 knots; 1.0 m/s)
Visibility: 6 or more miles (10+ km)
Ceiling: 10000 feet AGL
Clouds: few clouds at 5000 feet AGL
broken clouds at 10000 feet AGL
overcast cloud deck at 14000 feet AGL
Weather: -RA  (light rain)

METAR text: RJOH 191700Z VRB01KT 9999 FEW050 BKN150 OVC180 25/21 Q1010
Conditions at: RJOH (MIHO (CIV/JASDF), JP) observed 1700 UTC 19 July 2019
Temperature: 25.0°C (77°F)
Dewpoint: 21.0°C (70°F) [RH = 79%]
Pressure (altimeter): 29.82 inches Hg (1010.0 mb)
Winds: variable direction winds at 1 MPH (1 knots; 0.5 m/s)
Visibility: 6 or more miles (10+ km)
Ceiling: 15000 feet AGL
Clouds: few clouds at 5000 feet AGL
broken clouds at 15000 feet AGL
overcast cloud deck at 18000 feet AGL
Weather: no significant weather observed at this time

METAR text: RJOH 191600Z VRB02KT 9999 FEW050 SCT150 OVC180 26/20 Q1010
Conditions at: RJOH (MIHO (CIV/JASDF), JP) observed 1600 UTC 19 July 2019
Temperature: 26.0°C (79°F)
Dewpoint: 20.0°C (68°F) [RH = 70%]
Pressure (altimeter): 29.82 inches Hg (1010.0 mb)
Winds: variable direction winds at 2 MPH (2 knots; 1.0 m/s)
Visibility: 6 or more miles (10+ km)
Ceiling: 18000 feet AGL
Clouds: few clouds at 5000 feet AGL
scattered clouds at 15000 feet AGL
overcast cloud deck at 18000 feet AGL
Weather: no significant weather observed at this time

METAR text: RJOH 191500Z 17007KT 9999 FEW050 SCT150 OVC180 26/20 Q1010
Conditions at: RJOH (MIHO (CIV/JASDF), JP) observed 1500 UTC 19 July 2019
Temperature: 26.0°C (79°F)
Dewpoint: 20.0°C (68°F) [RH = 70%]
Pressure (altimeter): 29.82 inches Hg (1010.0 mb)
Winds: from the S (170 degrees) at 8 MPH (7 knots; 3.6 m/s)
Visibility: 6 or more miles (10+ km)
Ceiling: 18000 feet AGL
Clouds: few clouds at 5000 feet AGL
scattered clouds at 15000 feet AGL
overcast cloud deck at 18000 feet AGL
Weather: no significant weather observed at this time

METAR text: RJOH 191400Z VRB01KT 9999 FEW050 BKN150 OVC180 26/20 Q1011
Conditions at: RJOH (MIHO (CIV/JASDF), JP) observed 1400 UTC 19 July 2019
Temperature: 26.0°C (79°F)
Dewpoint: 20.0°C (68°F) [RH = 70%]
Pressure (altimeter): 29.85 inches Hg (1011.0 mb)
Winds: variable direction winds at 1 MPH (1 knots; 0.5 m/s)
Visibility: 6 or more miles (10+ km)
Ceiling: 15000 feet AGL
Clouds: few clouds at 5000 feet AGL
broken clouds at 15000 feet AGL
overcast cloud deck at 18000 feet AGL
Weather: no significant weather observed at this time

METAR text: RJOH 191300Z 16007KT 130V190 9999 FEW050 BKN150 BKN/// 26/20 Q1011
Conditions at: RJOH (MIHO (CIV/JASDF), JP) observed 1300 UTC 19 July 2019
Temperature: 26.0°C (79°F)
Dewpoint: 20.0°C (68°F) [RH = 70%]
Pressure (altimeter): 29.85 inches Hg (1011.0 mb)
Winds: from the SSE (160 degrees) at 8 MPH (7 knots; 3.6 m/s)
Visibility: 6 or more miles (10+ km)
Ceiling: 15000 feet AGL
Clouds: few clouds at 5000 feet AGL
broken clouds at 15000 feet AGL
Weather: no significant weather observed at this time

METAR text: RJOH 191200Z 17011KT 9999 FEW050 BKN150 BKN/// 26/20 Q1011
Conditions at: RJOH (MIHO (CIV/JASDF), JP) observed 1200 UTC 19 July 2019
Temperature: 26.0°C (79°F)
Dewpoint: 20.0°C (68°F) [RH = 70%]
Pressure (altimeter): 29.85 inches Hg (1011.0 mb)
Winds: from the S (170 degrees) at 13 MPH (11 knots; 5.7 m/s)
Visibility: 6 or more miles (10+ km)
Ceiling: 15000 feet AGL
Clouds: few clouds at 5000 feet AGL
broken clouds at 15000 feet AGL
Weather: no significant weather observed at this time

METAR text: RJOH 191100Z 18005KT 9999 FEW050 SCT100 BKN150 26/20 Q1011
Conditions at: RJOH (MIHO (CIV/JASDF), JP) observed 1100 UTC 19 July 2019
Temperature: 26.0°C (79°F)
Dewpoint: 20.0°C (68°F) [RH = 70%]
Pressure (altimeter): 29.85 inches Hg (1011.0 mb)
Winds: from the S (180 degrees) at 6 MPH (5 knots; 2.6 m/s)
Visibility: 6 or more miles (10+ km)
Ceiling: 15000 feet AGL
Clouds: few clouds at 5000 feet AGL
scattered clouds at 10000 feet AGL
broken clouds at 15000 feet AGL
Weather: no significant weather observed at this time

METAR text: RJOH 191000Z 18003KT 130V220 9999 FEW050 SCT100 BKN150 26/20 Q1011
Conditions at: RJOH (MIHO (CIV/JASDF), JP) observed 1000 UTC 19 July 2019
Temperature: 26.0°C (79°F)
Dewpoint: 20.0°C (68°F) [RH = 70%]
Pressure (altimeter): 29.85 inches Hg (1011.0 mb)
Winds: from the S (180 degrees) at 3 MPH (3 knots; 1.5 m/s)
Visibility: 6 or more miles (10+ km)
Ceiling: 15000 feet AGL
Clouds: few clouds at 5000 feet AGL
scattered clouds at 10000 feet AGL
broken clouds at 15000 feet AGL
Weather: no significant weather observed at this time

METAR text: RJOH 190900Z 17008KT 9999 FEW015 SCT100 BKN150 27/21 Q1011
Conditions at: RJOH (MIHO (CIV/JASDF), JP) observed 0900 UTC 19 July 2019
Temperature: 27.0°C (81°F)
Dewpoint: 21.0°C (70°F) [RH = 70%]
Pressure (altimeter): 29.85 inches Hg (1011.0 mb)
Winds: from the S (170 degrees) at 9 MPH (8 knots; 4.1 m/s)
Visibility: 6 or more miles (10+ km)
Ceiling: 15000 feet AGL
Clouds: few clouds at 1500 feet AGL
scattered clouds at 10000 feet AGL
broken clouds at 15000 feet AGL
Weather: no significant weather observed at this time

METAR text: RJOH 190800Z 18008KT 9999 FEW015 SCT100 BKN150 27/21 Q1011
Conditions at: RJOH (MIHO (CIV/JASDF), JP) observed 0800 UTC 19 July 2019
Temperature: 27.0°C (81°F)
Dewpoint: 21.0°C (70°F) [RH = 70%]
Pressure (altimeter): 29.85 inches Hg (1011.0 mb)
Winds: from the S (180 degrees) at 9 MPH (8 knots; 4.1 m/s)
Visibility: 6 or more miles (10+ km)
Ceiling: 15000 feet AGL
Clouds: few clouds at 1500 feet AGL
scattered clouds at 10000 feet AGL
broken clouds at 15000 feet AGL
Weather: no significant weather observed at this time

METAR text: RJOH 190700Z 16006KT 9999 FEW015 BKN100 BKN150 28/21 Q1010
Conditions at: RJOH (MIHO (CIV/JASDF), JP) observed 0700 UTC 19 July 2019
Temperature: 28.0°C (82°F)
Dewpoint: 21.0°C (70°F) [RH = 66%]
Pressure (altimeter): 29.82 inches Hg (1010.0 mb)
Winds: from the SSE (160 degrees) at 7 MPH (6 knots; 3.1 m/s)
Visibility: 6 or more miles (10+ km)
Ceiling: 10000 feet AGL
Clouds: few clouds at 1500 feet AGL
broken clouds at 10000 feet AGL
broken clouds at 15000 feet AGL
Weather: no significant weather observed at this time

METAR text: RJOH 190600Z 17008KT 9999 FEW015 BKN100 BKN150 28/22 Q1010
Conditions at: RJOH (MIHO (CIV/JASDF), JP) observed 0600 UTC 19 July 2019
Temperature: 28.0°C (82°F)
Dewpoint: 22.0°C (72°F) [RH = 70%]
Pressure (altimeter): 29.82 inches Hg (1010.0 mb)
Winds: from the S (170 degrees) at 9 MPH (8 knots; 4.1 m/s)
Visibility: 6 or more miles (10+ km)
Ceiling: 10000 feet AGL
Clouds: few clouds at 1500 feet AGL
broken clouds at 10000 feet AGL
broken clouds at 15000 feet AGL
Weather: no significant weather observed at this time

METAR text: RJOH 190500Z 19004KT 9999 FEW015 BKN100 BKN150 28/22 Q1010
Conditions at: RJOH (MIHO (CIV/JASDF), JP) observed 0500 UTC 19 July 2019
Temperature: 28.0°C (82°F)
Dewpoint: 22.0°C (72°F) [RH = 70%]
Pressure (altimeter): 29.82 inches Hg (1010.0 mb)
Winds: from the S (190 degrees) at 5 MPH (4 knots; 2.1 m/s)
Visibility: 6 or more miles (10+ km)
Ceiling: 10000 feet AGL
Clouds: few clouds at 1500 feet AGL
broken clouds at 10000 feet AGL
broken clouds at 15000 feet AGL
Weather: no significant weather observed at this time

METAR text: RJOH 190400Z 17003KT 120V220 9999 FEW015 BKN100 OVC150 28/22 Q1010
Conditions at: RJOH (MIHO (CIV/JASDF), JP) observed 0400 UTC 19 July 2019
Temperature: 28.0°C (82°F)
Dewpoint: 22.0°C (72°F) [RH = 70%]
Pressure (altimeter): 29.82 inches Hg (1010.0 mb)
Winds: from the S (170 degrees) at 3 MPH (3 knots; 1.5 m/s)
Visibility: 6 or more miles (10+ km)
Ceiling: 10000 feet AGL
Clouds: few clouds at 1500 feet AGL
broken clouds at 10000 feet AGL
overcast cloud deck at 15000 feet AGL
Weather: no significant weather observed at this time

METAR text: RJOH 190300Z 16003KT 140V200 9999 FEW010 BKN090 OVC150 28/22 Q1011
Conditions at: RJOH (MIHO (CIV/JASDF), JP) observed 0300 UTC 19 July 2019
Temperature: 28.0°C (82°F)
Dewpoint: 22.0°C (72°F) [RH = 70%]
Pressure (altimeter): 29.85 inches Hg (1011.0 mb)
Winds: from the SSE (160 degrees) at 3 MPH (3 knots; 1.5 m/s)
Visibility: 6 or more miles (10+ km)
Ceiling: 9000 feet AGL
Clouds: few clouds at 1000 feet AGL
broken clouds at 9000 feet AGL
overcast cloud deck at 15000 feet AGL
Weather: no significant weather observed at this time

METAR text: RJOH 190200Z 16005KT 130V200 9999 FEW010 BKN090 OVC150 27/23 Q1011
Conditions at: RJOH (MIHO (CIV/JASDF), JP) observed 0200 UTC 19 July 2019
Temperature: 27.0°C (81°F)
Dewpoint: 23.0°C (73°F) [RH = 79%]
Pressure (altimeter): 29.85 inches Hg (1011.0 mb)
Winds: from the SSE (160 degrees) at 6 MPH (5 knots; 2.6 m/s)
Visibility: 6 or more miles (10+ km)
Ceiling: 9000 feet AGL
Clouds: few clouds at 1000 feet AGL
broken clouds at 9000 feet AGL
overcast cloud deck at 15000 feet AGL
Weather: no significant weather observed at this time

Forecast for: RJOH (MIHO (CIV/JASDF), JP)
Text: TAF RJOH 201107Z 2012/2118 14006KT 9999 -SHRA FEW010 SCT030 BKN050
Forecast period: 1200 to 1300 UTC 20 July 2019
Forecast type: FROM: standard forecast or significant change
Winds: from the SE (140 degrees) at 7 MPH (6 knots; 3.1 m/s)
Visibility: 6 or more miles 10+ km)
Ceiling: 5000 feet AGL
Clouds: few clouds at 1000 feet AGL
scattered clouds at 3000 feet AGL
broken clouds at 5000 feet AGL
Weather: -SHRA  (light rain showers)
Text: BECMG 2013/2015 18006KT
Forecast period: 1300 UTC 20 July 2019 to 1800 UTC 21 July 2019
Forecast type: BECOMING: Conditions expected to become as follows by 1500 UTC 20 July 2019
Winds: from the S (180 degrees) at 7 MPH (6 knots; 3.1 m/s)
Visibility: 6 or more miles 10+ km)
Ceiling: 5000 feet AGL
Clouds: few clouds at 1000 feet AGL
scattered clouds at 3000 feet AGL
broken clouds at 5000 feet AGL
Weather: -SHRA  (light rain showers)
Text: TEMPO 2023/2103 4000 SHRA BR
Forecast period: 2300 UTC 20 July 2019 to 0300 UTC 21 July 2019
Forecast type: TEMPORARY: The following changes expected for less than half the time period
Visibility: 2.49 miles (4.01 km)
Ceiling: unknown
Clouds: missing
Weather: SHRA BR  (rain showers, mist)